sensor_id;sensor_type;location;lat;lon;timestamp;P1;durP1;ratioP1;P2;durP2;ratioP2
22565;SDS011;11449;51.330;19.378;2024-02-26T00:02:00;215.30;;;101.20;;
22565;SDS011;11449;51.330;19.378;2024-02-26T00:07:08;173.70;;;37.10;;
22565;SDS011;11449;51.330;19.378;2024-02-26T00:12:16;252.70;;;92.40;;
22565;SDS011;11449;51.330;19.378;2024-02-26T00:17:23;131.80;;;30.50;;
22565;SDS011;11449;51.330;19.378;2024-02-26T00:22:32;119.00;;;25.50;;
22565;SDS011;11449;51.330;19.378;2024-02-26T00:27:39;153.00;;;52.50;;
22565;SDS011;11449;51.330;19.378;2024-02-26T00:32:49;120.90;;;42.40;;
22565;SDS011;11449;51.330;19.378;2024-02-26T00:37:56;164.80;;;62.10;;
22565;SDS011;11449;51.330;19.378;2024-02-26T00:43:06;188.90;;;69.90;;
22565;SDS011;11449;51.330;19.378;2024-02-26T00:48:14;144.60;;;26.10;;
22565;SDS011;11449;51.330;19.378;2024-02-26T00:53:22;111.30;;;23.60;;
22565;SDS011;11449;51.330;19.378;2024-02-26T00:58:29;104.20;;;22.20;;
22565;SDS011;11449;51.330;19.378;2024-02-26T01:03:37;141.20;;;58.50;;
22565;SDS011;11449;51.330;19.378;2024-02-26T01:08:45;138.10;;;51.00;;
22565;SDS011;11449;51.330;19.378;2024-02-26T01:13:53;174.10;;;75.30;;
22565;SDS011;11449;51.330;19.378;2024-02-26T01:19:03;148.00;;;62.30;;
22565;SDS011;11449;51.330;19.378;2024-02-26T01:24:11;155.00;;;27.00;;
22565;SDS011;11449;51.330;19.378;2024-02-26T01:29:19;217.20;;;65.80;;
22565;SDS011;11449;51.330;19.378;2024-02-26T01:34:27;122.60;;;22.30;;
22565;SDS011;11449;51.330;19.378;2024-02-26T01:39:34;100.10;;;18.00;;
22565;SDS011;11449;51.330;19.378;2024-02-26T01:44:42;98.60;;;20.40;;
22565;SDS011;11449;51.330;19.378;2024-02-26T01:49:50;103.70;;;19.80;;
22565;SDS011;11449;51.330;19.378;2024-02-26T01:54:57;112.20;;;22.30;;
22565;SDS011;11449;51.330;19.378;2024-02-26T02:00:06;183.10;;;76.70;;
22565;SDS011;11449;51.330;19.378;2024-02-26T02:05:15;256.80;;;71.80;;
22565;SDS011;11449;51.330;19.378;2024-02-26T02:10:24;236.20;;;89.50;;
22565;SDS011;11449;51.330;19.378;2024-02-26T02:15:34;151.00;;;38.00;;
22565;SDS011;11449;51.330;19.378;2024-02-26T02:20:42;204.70;;;88.60;;
22565;SDS011;11449;51.330;19.378;2024-02-26T02:25:49;167.80;;;38.00;;
22565;SDS011;11449;51.330;19.378;2024-02-26T02:30:57;183.30;;;85.50;;
22565;SDS011;11449;51.330;19.378;2024-02-26T02:36:05;241.20;;;109.30;;
22565;SDS011;11449;51.330;19.378;2024-02-26T02:41:16;213.10;;;65.30;;
22565;SDS011;11449;51.330;19.378;2024-02-26T02:46:24;218.00;;;93.80;;
22565;SDS011;11449;51.330;19.378;2024-02-26T02:51:32;220.20;;;105.30;;
22565;SDS011;11449;51.330;19.378;2024-02-26T02:56:40;217.40;;;100.60;;
22565;SDS011;11449;51.330;19.378;2024-02-26T03:01:47;132.60;;;35.10;;
22565;SDS011;11449;51.330;19.378;2024-02-26T03:06:55;135.20;;;35.70;;
22565;SDS011;11449;51.330;19.378;2024-02-26T03:12:03;135.20;;;34.90;;
22565;SDS011;11449;51.330;19.378;2024-02-26T03:17:11;172.90;;;37.30;;
22565;SDS011;11449;51.330;19.378;2024-02-26T03:22:19;172.30;;;37.80;;
22565;SDS011;11449;51.330;19.378;2024-02-26T03:27:27;123.90;;;32.50;;
22565;SDS011;11449;51.330;19.378;2024-02-26T03:32:34;115.60;;;31.80;;
22565;SDS011;11449;51.330;19.378;2024-02-26T03:37:42;131.00;;;33.10;;
22565;SDS011;11449;51.330;19.378;2024-02-26T03:42:50;141.40;;;40.70;;
22565;SDS011;11449;51.330;19.378;2024-02-26T03:48:00;166.50;;;45.50;;
22565;SDS011;11449;51.330;19.378;2024-02-26T03:53:07;153.30;;;36.70;;
22565;SDS011;11449;51.330;19.378;2024-02-26T03:58:16;178.90;;;38.60;;
22565;SDS011;11449;51.330;19.378;2024-02-26T04:03:24;141.70;;;34.40;;
22565;SDS011;11449;51.330;19.378;2024-02-26T04:08:32;129.70;;;37.20;;
22565;SDS011;11449;51.330;19.378;2024-02-26T04:13:39;160.50;;;35.70;;
22565;SDS011;11449;51.330;19.378;2024-02-26T04:18:47;126.40;;;33.20;;
22565;SDS011;11449;51.330;19.378;2024-02-26T04:23:55;111.00;;;30.70;;
22565;SDS011;11449;51.330;19.378;2024-02-26T04:29:03;128.10;;;32.80;;
22565;SDS011;11449;51.330;19.378;2024-02-26T04:34:10;156.90;;;34.50;;
22565;SDS011;11449;51.330;19.378;2024-02-26T04:39:18;161.90;;;31.60;;
22565;SDS011;11449;51.330;19.378;2024-02-26T04:44:26;104.90;;;27.50;;
22565;SDS011;11449;51.330;19.378;2024-02-26T04:49:33;113.70;;;27.80;;
22565;SDS011;11449;51.330;19.378;2024-02-26T04:54:41;117.30;;;28.60;;
22565;SDS011;11449;51.330;19.378;2024-02-26T04:59:49;114.70;;;28.70;;
22565;SDS011;11449;51.330;19.378;2024-02-26T05:04:57;103.30;;;27.70;;
22565;SDS011;11449;51.330;19.378;2024-02-26T05:10:05;122.50;;;29.40;;
22565;SDS011;11449;51.330;19.378;2024-02-26T05:15:13;123.80;;;30.70;;
22565;SDS011;11449;51.330;19.378;2024-02-26T05:20:25;124.90;;;28.90;;
22565;SDS011;11449;51.330;19.378;2024-02-26T05:25:33;149.20;;;30.00;;
22565;SDS011;11449;51.330;19.378;2024-02-26T05:30:41;145.00;;;28.90;;
22565;SDS011;11449;51.330;19.378;2024-02-26T05:35:48;140.50;;;27.40;;
22565;SDS011;11449;51.330;19.378;2024-02-26T05:40:56;100.70;;;26.70;;
22565;SDS011;11449;51.330;19.378;2024-02-26T05:46:04;126.80;;;31.00;;
22565;SDS011;11449;51.330;19.378;2024-02-26T05:51:11;144.80;;;42.20;;
22565;SDS011;11449;51.330;19.378;2024-02-26T05:56:20;120.10;;;28.60;;
22565;SDS011;11449;51.330;19.378;2024-02-26T06:01:28;237.00;;;124.80;;
22565;SDS011;11449;51.330;19.378;2024-02-26T06:06:36;242.60;;;109.50;;
22565;SDS011;11449;51.330;19.378;2024-02-26T06:11:43;277.00;;;144.50;;
22565;SDS011;11449;51.330;19.378;2024-02-26T06:16:51;211.30;;;106.30;;
22565;SDS011;11449;51.330;19.378;2024-02-26T06:21:59;271.00;;;141.30;;
22565;SDS011;11449;51.330;19.378;2024-02-26T06:27:06;246.00;;;117.60;;
22565;SDS011;11449;51.330;19.378;2024-02-26T06:32:14;208.30;;;96.20;;
22565;SDS011;11449;51.330;19.378;2024-02-26T06:37:22;239.60;;;115.60;;
22565;SDS011;11449;51.330;19.378;2024-02-26T06:42:30;321.00;;;187.80;;
22565;SDS011;11449;51.330;19.378;2024-02-26T06:47:38;194.50;;;65.90;;
22565;SDS011;11449;51.330;19.378;2024-02-26T06:52:45;359.80;;;207.40;;
22565;SDS011;11449;51.330;19.378;2024-02-26T06:57:54;326.40;;;209.70;;
22565;SDS011;11449;51.330;19.378;2024-02-26T07:03:01;167.50;;;51.20;;
22565;SDS011;11449;51.330;19.378;2024-02-26T07:08:09;155.40;;;49.20;;
22565;SDS011;11449;51.330;19.378;2024-02-26T07:13:17;170.90;;;55.70;;
22565;SDS011;11449;51.330;19.378;2024-02-26T07:18:25;165.80;;;46.40;;
22565;SDS011;11449;51.330;19.378;2024-02-26T07:23:32;172.90;;;50.00;;
22565;SDS011;11449;51.330;19.378;2024-02-26T07:28:40;197.30;;;62.40;;
22565;SDS011;11449;51.330;19.378;2024-02-26T07:33:48;195.60;;;75.40;;
22565;SDS011;11449;51.330;19.378;2024-02-26T07:38:55;135.90;;;46.80;;
22565;SDS011;11449;51.330;19.378;2024-02-26T07:44:03;141.70;;;56.60;;
22565;SDS011;11449;51.330;19.378;2024-02-26T07:49:11;281.30;;;180.50;;
22565;SDS011;11449;51.330;19.378;2024-02-26T07:54:19;324.50;;;267.10;;
22565;SDS011;11449;51.330;19.378;2024-02-26T07:59:26;473.90;;;423.80;;
22565;SDS011;11449;51.330;19.378;2024-02-26T08:04:34;542.50;;;488.20;;
22565;SDS011;11449;51.330;19.378;2024-02-26T08:09:42;591.40;;;534.70;;
22565;SDS011;11449;51.330;19.378;2024-02-26T08:14:49;481.50;;;432.30;;
22565;SDS011;11449;51.330;19.378;2024-02-26T08:19:57;479.10;;;430.20;;
22565;SDS011;11449;51.330;19.378;2024-02-26T08:25:05;558.90;;;502.40;;
22565;SDS011;11449;51.330;19.378;2024-02-26T08:30:14;567.10;;;508.10;;
22565;SDS011;11449;51.330;19.378;2024-02-26T08:35:24;1197.60;;;999.90;;
22565;SDS011;11449;51.330;19.378;2024-02-26T08:40:32;1186.70;;;999.90;;
22565;SDS011;11449;51.330;19.378;2024-02-26T08:45:39;1192.60;;;999.90;;
22565;SDS011;11449;51.330;19.378;2024-02-26T08:50:47;1226.80;;;999.90;;
22565;SDS011;11449;51.330;19.378;2024-02-26T08:55:54;1230.80;;;999.90;;
22565;SDS011;11449;51.330;19.378;2024-02-26T09:01:02;531.00;;;454.10;;
22565;SDS011;11449;51.330;19.378;2024-02-26T09:06:10;585.30;;;502.10;;
22565;SDS011;11449;51.330;19.378;2024-02-26T09:11:19;565.40;;;486.90;;
22565;SDS011;11449;51.330;19.378;2024-02-26T09:16:27;653.10;;;583.30;;
22565;SDS011;11449;51.330;19.378;2024-02-26T09:21:35;597.30;;;531.20;;
22565;SDS011;11449;51.330;19.378;2024-02-26T09:26:42;681.70;;;609.50;;
22565;SDS011;11449;51.330;19.378;2024-02-26T09:31:50;512.80;;;452.50;;
22565;SDS011;11449;51.330;19.378;2024-02-26T09:36:58;537.80;;;481.60;;
22565;SDS011;11449;51.330;19.378;2024-02-26T09:42:06;499.70;;;439.30;;
22565;SDS011;11449;51.330;19.378;2024-02-26T09:47:17;626.00;;;559.30;;
22565;SDS011;11449;51.330;19.378;2024-02-26T09:52:27;572.70;;;492.60;;
22565;SDS011;11449;51.330;19.378;2024-02-26T09:57:38;531.40;;;440.70;;
22565;SDS011;11449;51.330;19.378;2024-02-26T10:02:45;506.90;;;397.10;;
22565;SDS011;11449;51.330;19.378;2024-02-26T10:07:53;518.50;;;413.30;;
22565;SDS011;11449;51.330;19.378;2024-02-26T10:13:03;1167.40;;;999.90;;
22565;SDS011;11449;51.330;19.378;2024-02-26T10:18:11;1164.30;;;999.90;;
22565;SDS011;11449;51.330;19.378;2024-02-26T10:23:19;1179.60;;;999.90;;
22565;SDS011;11449;51.330;19.378;2024-02-26T10:28:26;1164.60;;;999.90;;
22565;SDS011;11449;51.330;19.378;2024-02-26T10:33:37;1176.80;;;999.90;;
22565;SDS011;11449;51.330;19.378;2024-02-26T10:38:45;1164.60;;;999.90;;
22565;SDS011;11449;51.330;19.378;2024-02-26T10:43:53;1164.30;;;999.90;;
22565;SDS011;11449;51.330;19.378;2024-02-26T10:49:01;1167.70;;;999.90;;
22565;SDS011;11449;51.330;19.378;2024-02-26T10:54:09;1171.90;;;999.90;;
22565;SDS011;11449;51.330;19.378;2024-02-26T10:59:19;1156.20;;;999.90;;
22565;SDS011;11449;51.330;19.378;2024-02-26T11:04:28;1163.60;;;999.90;;
22565;SDS011;11449;51.330;19.378;2024-02-26T11:09:37;1169.00;;;999.90;;
22565;SDS011;11449;51.330;19.378;2024-02-26T11:14:51;1165.60;;;999.90;;
22565;SDS011;11449;51.330;19.378;2024-02-26T11:20:02;1173.10;;;999.90;;
22565;SDS011;11449;51.330;19.378;2024-02-26T11:25:10;1164.80;;;999.90;;
22565;SDS011;11449;51.330;19.378;2024-02-26T11:30:20;1176.80;;;999.90;;
22565;SDS011;11449;51.330;19.378;2024-02-26T11:35:28;1163.90;;;999.90;;
22565;SDS011;11449;51.330;19.378;2024-02-26T11:40:39;1176.30;;;999.90;;
22565;SDS011;11449;51.330;19.378;2024-02-26T11:45:51;1158.90;;;999.90;;
22565;SDS011;11449;51.330;19.378;2024-02-26T11:51:00;1161.40;;;999.90;;
22565;SDS011;11449;51.330;19.378;2024-02-26T12:06:50;70.50;;;11.80;;
22565;SDS011;11449;51.330;19.378;2024-02-26T12:11:59;49.30;;;9.40;;
22565;SDS011;11449;51.330;19.378;2024-02-26T12:17:07;75.50;;;10.90;;
22565;SDS011;11449;51.330;19.378;2024-02-26T12:22:22;1152.20;;;999.90;;
22565;SDS011;11449;51.330;19.378;2024-02-26T12:27:32;1153.90;;;999.90;;
22565;SDS011;11449;51.330;19.378;2024-02-26T12:32:40;1163.90;;;999.90;;
22565;SDS011;11449;51.330;19.378;2024-02-26T12:37:48;1154.20;;;999.90;;
22565;SDS011;11449;51.330;19.378;2024-02-26T12:42:55;1149.50;;;999.90;;
22565;SDS011;11449;51.330;19.378;2024-02-26T12:48:04;1154.10;;;999.90;;
22565;SDS011;11449;51.330;19.378;2024-02-26T12:53:12;43.10;;;9.30;;
22565;SDS011;11449;51.330;19.378;2024-02-26T12:58:20;47.00;;;10.10;;
22565;SDS011;11449;51.330;19.378;2024-02-26T13:03:27;51.30;;;9.80;;
22565;SDS011;11449;51.330;19.378;2024-02-26T13:08:35;49.10;;;9.20;;
22565;SDS011;11449;51.330;19.378;2024-02-26T13:13:47;41.30;;;8.10;;
22565;SDS011;11449;51.330;19.378;2024-02-26T13:18:54;39.00;;;8.10;;
22565;SDS011;11449;51.330;19.378;2024-02-26T13:24:02;41.20;;;7.90;;
22565;SDS011;11449;51.330;19.378;2024-02-26T13:29:16;40.50;;;6.80;;
22565;SDS011;11449;51.330;19.378;2024-02-26T13:39:32;588.10;;;524.20;;
22565;SDS011;11449;51.330;19.378;2024-02-26T13:44:40;537.00;;;433.60;;
22565;SDS011;11449;51.330;19.378;2024-02-26T13:49:48;442.80;;;341.90;;
22565;SDS011;11449;51.330;19.378;2024-02-26T13:54:56;563.60;;;501.20;;
22565;SDS011;11449;51.330;19.378;2024-02-26T14:00:04;491.00;;;369.20;;
22565;SDS011;11449;51.330;19.378;2024-02-26T14:05:13;506.80;;;380.60;;
22565;SDS011;11449;51.330;19.378;2024-02-26T14:10:21;560.80;;;489.40;;
22565;SDS011;11449;51.330;19.378;2024-02-26T14:15:28;568.70;;;504.50;;
22565;SDS011;11449;51.330;19.378;2024-02-26T14:20:37;652.20;;;583.20;;
22565;SDS011;11449;51.330;19.378;2024-02-26T14:25:46;508.60;;;407.10;;
22565;SDS011;11449;51.330;19.378;2024-02-26T14:30:54;664.90;;;596.00;;
22565;SDS011;11449;51.330;19.378;2024-02-26T14:36:01;549.10;;;455.80;;
22565;SDS011;11449;51.330;19.378;2024-02-26T14:41:09;544.10;;;457.10;;
22565;SDS011;11449;51.330;19.378;2024-02-26T14:46:18;588.00;;;524.40;;
22565;SDS011;11449;51.330;19.378;2024-02-26T14:51:25;555.90;;;483.00;;
22565;SDS011;11449;51.330;19.378;2024-02-26T14:56:33;554.80;;;470.00;;
22565;SDS011;11449;51.330;19.378;2024-02-26T15:01:41;518.70;;;426.70;;
22565;SDS011;11449;51.330;19.378;2024-02-26T15:06:48;541.50;;;467.90;;
22565;SDS011;11449;51.330;19.378;2024-02-26T15:11:56;505.50;;;390.30;;
22565;SDS011;11449;51.330;19.378;2024-02-26T15:17:05;596.60;;;530.70;;
22565;SDS011;11449;51.330;19.378;2024-02-26T15:22:17;565.70;;;481.60;;
22565;SDS011;11449;51.330;19.378;2024-02-26T15:27:25;574.90;;;504.60;;
22565;SDS011;11449;51.330;19.378;2024-02-26T15:32:33;582.90;;;505.70;;
22565;SDS011;11449;51.330;19.378;2024-02-26T15:37:41;597.70;;;532.00;;
22565;SDS011;11449;51.330;19.378;2024-02-26T15:42:48;568.30;;;493.50;;
22565;SDS011;11449;51.330;19.378;2024-02-26T15:47:56;505.30;;;402.10;;
22565;SDS011;11449;51.330;19.378;2024-02-26T15:53:04;640.10;;;571.00;;
22565;SDS011;11449;51.330;19.378;2024-02-26T15:58:12;486.60;;;400.20;;
22565;SDS011;11449;51.330;19.378;2024-02-26T16:03:19;585.30;;;518.20;;
22565;SDS011;11449;51.330;19.378;2024-02-26T16:08:27;564.20;;;478.20;;
22565;SDS011;11449;51.330;19.378;2024-02-26T16:13:35;607.60;;;541.50;;
22565;SDS011;11449;51.330;19.378;2024-02-26T16:18:43;600.70;;;535.10;;
22565;SDS011;11449;51.330;19.378;2024-02-26T16:23:51;560.40;;;481.00;;
22565;SDS011;11449;51.330;19.378;2024-02-26T16:28:59;515.80;;;425.30;;
22565;SDS011;11449;51.330;19.378;2024-02-26T16:34:01;512.30;;;403.50;;
22565;SDS011;11449;51.330;19.378;2024-02-26T16:39:09;688.60;;;618.10;;
22565;SDS011;11449;51.330;19.378;2024-02-26T16:44:17;675.70;;;606.80;;
22565;SDS011;11449;51.330;19.378;2024-02-26T16:49:25;554.60;;;494.80;;
22565;SDS011;11449;51.330;19.378;2024-02-26T16:54:32;620.90;;;553.10;;
22565;SDS011;11449;51.330;19.378;2024-02-26T16:59:40;605.80;;;539.30;;
22565;SDS011;11449;51.330;19.378;2024-02-26T17:04:48;542.00;;;434.10;;
22565;SDS011;11449;51.330;19.378;2024-02-26T17:09:56;561.40;;;460.30;;
22565;SDS011;11449;51.330;19.378;2024-02-26T17:15:04;534.90;;;415.90;;
22565;SDS011;11449;51.330;19.378;2024-02-26T17:20:12;530.20;;;459.20;;
22565;SDS011;11449;51.330;19.378;2024-02-26T17:25:20;315.20;;;240.70;;
22565;SDS011;11449;51.330;19.378;2024-02-26T17:30:28;259.20;;;150.30;;
22565;SDS011;11449;51.330;19.378;2024-02-26T17:35:35;149.10;;;40.80;;
22565;SDS011;11449;51.330;19.378;2024-02-26T17:40:43;139.40;;;23.50;;
22565;SDS011;11449;51.330;19.378;2024-02-26T17:45:51;130.20;;;38.00;;
22565;SDS011;11449;51.330;19.378;2024-02-26T17:50:58;125.20;;;35.70;;
22565;SDS011;11449;51.330;19.378;2024-02-26T17:56:06;133.00;;;33.80;;
22565;SDS011;11449;51.330;19.378;2024-02-26T18:01:14;156.60;;;45.00;;
22565;SDS011;11449;51.330;19.378;2024-02-26T18:06:22;150.60;;;49.70;;
22565;SDS011;11449;51.330;19.378;2024-02-26T18:11:29;168.50;;;45.60;;
22565;SDS011;11449;51.330;19.378;2024-02-26T18:16:37;155.10;;;42.50;;
22565;SDS011;11449;51.330;19.378;2024-02-26T18:21:45;143.40;;;47.60;;
22565;SDS011;11449;51.330;19.378;2024-02-26T18:26:53;154.10;;;63.10;;
22565;SDS011;11449;51.330;19.378;2024-02-26T18:32:01;175.70;;;75.80;;
22565;SDS011;11449;51.330;19.378;2024-02-26T18:37:09;274.60;;;70.50;;
22565;SDS011;11449;51.330;19.378;2024-02-26T18:42:17;126.20;;;42.10;;
22565;SDS011;11449;51.330;19.378;2024-02-26T18:47:22;176.60;;;69.90;;
22565;SDS011;11449;51.330;19.378;2024-02-26T18:52:30;240.60;;;104.70;;
22565;SDS011;11449;51.330;19.378;2024-02-26T18:57:38;195.40;;;82.60;;
22565;SDS011;11449;51.330;19.378;2024-02-26T19:02:47;192.40;;;109.10;;
22565;SDS011;11449;51.330;19.378;2024-02-26T19:07:55;289.30;;;147.90;;
22565;SDS011;11449;51.330;19.378;2024-02-26T19:13:06;282.70;;;188.30;;
22565;SDS011;11449;51.330;19.378;2024-02-26T19:18:13;257.30;;;160.40;;
22565;SDS011;11449;51.330;19.378;2024-02-26T19:23:21;256.30;;;154.20;;
22565;SDS011;11449;51.330;19.378;2024-02-26T19:28:29;153.40;;;59.10;;
22565;SDS011;11449;51.330;19.378;2024-02-26T19:33:38;226.00;;;134.70;;
22565;SDS011;11449;51.330;19.378;2024-02-26T19:38:45;253.40;;;145.70;;
22565;SDS011;11449;51.330;19.378;2024-02-26T19:43:53;265.20;;;142.70;;
22565;SDS011;11449;51.330;19.378;2024-02-26T19:49:01;227.10;;;100.20;;
22565;SDS011;11449;51.330;19.378;2024-02-26T19:54:09;269.20;;;172.50;;
22565;SDS011;11449;51.330;19.378;2024-02-26T19:59:16;328.90;;;245.00;;
22565;SDS011;11449;51.330;19.378;2024-02-26T20:04:19;335.30;;;247.10;;
22565;SDS011;11449;51.330;19.378;2024-02-26T20:09:27;114.00;;;29.50;;
22565;SDS011;11449;51.330;19.378;2024-02-26T20:14:37;152.60;;;47.90;;
22565;SDS011;11449;51.330;19.378;2024-02-26T20:19:46;172.50;;;60.80;;
22565;SDS011;11449;51.330;19.378;2024-02-26T20:24:54;241.70;;;82.30;;
22565;SDS011;11449;51.330;19.378;2024-02-26T20:30:02;205.00;;;90.60;;
22565;SDS011;11449;51.330;19.378;2024-02-26T20:35:10;211.70;;;110.30;;
22565;SDS011;11449;51.330;19.378;2024-02-26T20:40:18;357.30;;;258.80;;
22565;SDS011;11449;51.330;19.378;2024-02-26T20:45:27;261.00;;;153.60;;
22565;SDS011;11449;51.330;19.378;2024-02-26T20:50:29;442.60;;;387.90;;
22565;SDS011;11449;51.330;19.378;2024-02-26T20:55:37;427.30;;;381.20;;
22565;SDS011;11449;51.330;19.378;2024-02-26T21:00:50;482.20;;;428.90;;
22565;SDS011;11449;51.330;19.378;2024-02-26T21:05:58;580.20;;;517.30;;
22565;SDS011;11449;51.330;19.378;2024-02-26T21:11:06;519.20;;;465.80;;
22565;SDS011;11449;51.330;19.378;2024-02-26T21:16:14;493.10;;;439.70;;
22565;SDS011;11449;51.330;19.378;2024-02-26T21:21:22;518.30;;;463.10;;
22565;SDS011;11449;51.330;19.378;2024-02-26T21:26:31;382.50;;;318.80;;
22565;SDS011;11449;51.330;19.378;2024-02-26T21:31:40;562.20;;;500.30;;
22565;SDS011;11449;51.330;19.378;2024-02-26T21:36:48;1039.00;;;672.80;;
22565;SDS011;11449;51.330;19.378;2024-02-26T21:41:55;570.50;;;508.20;;
22565;SDS011;11449;51.330;19.378;2024-02-26T21:47:03;594.70;;;530.50;;
22565;SDS011;11449;51.330;19.378;2024-02-26T21:52:06;554.90;;;488.00;;
22565;SDS011;11449;51.330;19.378;2024-02-26T21:57:14;536.90;;;447.50;;
22565;SDS011;11449;51.330;19.378;2024-02-26T22:02:21;599.30;;;540.00;;
22565;SDS011;11449;51.330;19.378;2024-02-26T22:07:29;696.20;;;626.30;;
22565;SDS011;11449;51.330;19.378;2024-02-26T22:12:37;599.50;;;535.70;;
22565;SDS011;11449;51.330;19.378;2024-02-26T22:17:45;446.30;;;369.40;;
22565;SDS011;11449;51.330;19.378;2024-02-26T22:22:52;583.70;;;502.60;;
22565;SDS011;11449;51.330;19.378;2024-02-26T22:28:00;501.00;;;442.40;;
22565;SDS011;11449;51.330;19.378;2024-02-26T22:33:07;426.00;;;358.50;;
22565;SDS011;11449;51.330;19.378;2024-02-26T22:38:15;469.20;;;418.30;;
22565;SDS011;11449;51.330;19.378;2024-02-26T22:43:24;479.30;;;409.60;;
22565;SDS011;11449;51.330;19.378;2024-02-26T22:48:32;497.70;;;441.80;;
22565;SDS011;11449;51.330;19.378;2024-02-26T22:53:39;475.50;;;415.10;;
22565;SDS011;11449;51.330;19.378;2024-02-26T22:58:47;450.50;;;384.10;;
22565;SDS011;11449;51.330;19.378;2024-02-26T23:03:55;408.30;;;335.50;;
22565;SDS011;11449;51.330;19.378;2024-02-26T23:09:03;478.70;;;427.60;;
22565;SDS011;11449;51.330;19.378;2024-02-26T23:14:11;512.40;;;459.80;;
22565;SDS011;11449;51.330;19.378;2024-02-26T23:19:19;501.80;;;447.90;;
22565;SDS011;11449;51.330;19.378;2024-02-26T23:24:26;383.00;;;311.90;;
22565;SDS011;11449;51.330;19.378;2024-02-26T23:29:34;414.10;;;359.10;;
22565;SDS011;11449;51.330;19.378;2024-02-26T23:34:42;423.30;;;357.00;;
22565;SDS011;11449;51.330;19.378;2024-02-26T23:39:49;458.10;;;408.80;;
22565;SDS011;11449;51.330;19.378;2024-02-26T23:44:57;544.60;;;485.60;;
22565;SDS011;11449;51.330;19.378;2024-02-26T23:50:05;513.60;;;458.40;;
22565;SDS011;11449;51.330;19.378;2024-02-26T23:55:13;454.30;;;404.30;;
